createdAt,value
2022-12-08T00:01:09.475Z,11.52
2022-12-08T00:03:11.354Z,8.98
2022-12-08T00:05:31.828Z,10.27
2022-12-08T00:07:52.198Z,9.43
2022-12-08T00:09:53.979Z,13.15
2022-12-08T00:12:16.788Z,13.15
2022-12-08T00:14:18.682Z,9.55
2022-12-08T00:16:20.568Z,8.02
2022-12-08T00:18:22.321Z,13.68
2022-12-08T00:20:24.071Z,7.85
2022-12-08T00:22:25.957Z,9.82
2022-12-08T00:24:32.371Z,9.52
2022-12-08T00:26:34.232Z,12.77
2022-12-08T00:28:36.040Z,9.13
2022-12-08T00:30:40.607Z,9.20
2022-12-08T00:32:42.353Z,9.52
2022-12-08T00:34:44.117Z,9.73
2022-12-08T00:36:46.201Z,10.27
2022-12-08T00:38:48.826Z,7.45
2022-12-08T00:40:50.563Z,7.45
2022-12-08T00:42:52.469Z,9.18
2022-12-08T00:44:54.737Z,8.65
2022-12-08T00:46:56.643Z,7.97
2022-12-08T00:48:58.397Z,7.82
2022-12-08T00:51:00.163Z,8.15
2022-12-08T00:53:01.953Z,7.43
2022-12-08T00:55:05.194Z,8.02
2022-12-08T00:57:07.059Z,14.77
2022-12-08T00:59:08.749Z,7.10
2022-12-08T01:01:14.640Z,6.35
2022-12-08T01:03:16.501Z,9.32
2022-12-08T01:05:18.301Z,7.22
2022-12-08T01:07:20.155Z,6.60
2022-12-08T01:09:22.038Z,6.82
2022-12-08T01:11:23.866Z,6.95
2022-12-08T01:13:25.649Z,6.78
2022-12-08T01:15:27.445Z,9.10
2022-12-08T01:17:29.226Z,7.28
2022-12-08T01:19:31.084Z,7.18
2022-12-08T01:21:32.967Z,13.07
2022-12-08T01:23:35.455Z,8.05
2022-12-08T01:25:37.262Z,6.45
2022-12-08T01:27:39.150Z,7.18
2022-12-08T01:29:40.816Z,9.93
2022-12-08T01:31:42.987Z,7.55
2022-12-08T01:33:45.333Z,6.70
2022-12-08T01:35:47.083Z,4.82
2022-12-08T01:37:50.337Z,6.65
2022-12-08T01:39:52.090Z,6.93
2022-12-08T01:41:53.944Z,7.13
2022-12-08T01:44:10.967Z,7.70
2022-12-08T01:46:12.834Z,7.50
2022-12-08T01:48:19.512Z,5.78
2022-12-08T01:50:22.610Z,9.15
2022-12-08T01:52:29.077Z,6.07
2022-12-08T01:54:40.379Z,5.63
2022-12-08T01:57:08.415Z,6.68
2022-12-08T01:59:11.006Z,7.35
2022-12-08T02:01:12.926Z,6.25
2022-12-08T02:03:48.207Z,6.32
2022-12-08T02:05:50.093Z,7.28
2022-12-08T02:07:52.411Z,6.05
2022-12-08T02:09:55.113Z,8.48
2022-12-08T02:11:58.215Z,5.95
2022-12-08T02:14:01.303Z,9.90
2022-12-08T02:16:18.160Z,5.93
2022-12-08T02:18:31.881Z,6.50
2022-12-08T02:20:53.933Z,5.80
2022-12-08T02:23:15.662Z,6.00
2022-12-08T02:25:23.528Z,7.40
2022-12-08T02:27:37.034Z,5.60
2022-12-08T02:30:13.335Z,6.28
2022-12-08T02:32:49.308Z,5.70
2022-12-08T02:34:59.995Z,6.95
2022-12-08T02:38:00.709Z,6.20
2022-12-08T02:40:12.754Z,5.97
2022-12-08T02:42:23.594Z,5.90
2022-12-08T02:44:41.985Z,11.88
2022-12-08T02:46:53.602Z,6.28
2022-12-08T02:48:56.317Z,7.28
2022-12-08T02:50:58.247Z,11.05
2022-12-08T02:53:00.316Z,6.18
2022-12-08T02:55:06.938Z,7.00
2022-12-08T02:57:11.739Z,8.07
2022-12-08T02:59:31.314Z,7.35
2022-12-08T03:01:37.558Z,6.95
2022-12-08T03:03:52.280Z,6.85
2022-12-08T03:06:07.033Z,6.47
2022-12-08T03:08:48.034Z,6.97
2022-12-08T03:10:56.724Z,7.90
2022-12-08T03:13:06.904Z,6.82
2022-12-08T03:15:13.228Z,12.43
2022-12-08T03:17:16.121Z,6.53
2022-12-08T03:19:36.043Z,8.02
2022-12-08T03:21:38.271Z,7.35
2022-12-08T03:23:41.516Z,6.88
2022-12-08T03:26:02.872Z,11.48
2022-12-08T03:28:05.575Z,8.02
2022-12-08T03:30:08.148Z,6.82
2022-12-08T03:32:29.707Z,8.80
2022-12-08T03:34:31.726Z,6.80
2022-12-08T03:36:33.808Z,12.98
2022-12-08T03:38:43.536Z,9.52
2022-12-08T03:41:05.834Z,10.73
2022-12-08T03:43:07.972Z,11.30
2022-12-08T03:45:10.100Z,12.13
2022-12-08T03:47:11.929Z,8.45
2022-12-08T03:49:16.858Z,8.75
2022-12-08T03:51:19.611Z,8.32
2022-12-08T03:53:21.391Z,7.70
2022-12-08T03:55:23.199Z,8.73
2022-12-08T03:57:24.997Z,7.75
2022-12-08T03:59:26.759Z,12.48
2022-12-08T04:01:28.855Z,7.38
2022-12-08T04:03:30.721Z,7.72
2022-12-08T04:05:32.537Z,7.78
2022-12-08T04:07:34.321Z,9.15
2022-12-08T04:09:36.083Z,15.32
2022-12-08T04:11:37.823Z,9.38
2022-12-08T04:13:40.820Z,8.60
2022-12-08T04:15:47.185Z,6.88
2022-12-08T04:17:49.023Z,13.88
2022-12-08T04:19:50.770Z,11.88
2022-12-08T04:21:52.865Z,11.77
2022-12-08T04:24:00.767Z,9.77
2022-12-08T04:26:03.678Z,11.73
2022-12-08T04:28:05.922Z,10.30
2022-12-08T04:30:08.533Z,10.70
2022-12-08T04:32:10.381Z,9.27
2022-12-08T04:34:12.175Z,11.07
2022-12-08T04:36:13.936Z,9.15
2022-12-08T04:38:15.993Z,8.82
2022-12-08T04:40:18.676Z,10.68
2022-12-08T04:42:20.616Z,9.98
2022-12-08T04:44:22.370Z,11.48
2022-12-08T04:46:24.193Z,10.75
2022-12-08T04:48:25.973Z,8.65
2022-12-08T04:50:28.276Z,10.45
2022-12-08T04:52:30.020Z,12.10
2022-12-08T04:54:31.904Z,12.30
2022-12-08T04:56:33.786Z,10.52
2022-12-08T04:58:35.491Z,14.23
2022-12-08T05:00:37.283Z,8.80
2022-12-08T05:02:39.312Z,15.68
2022-12-08T05:04:41.205Z,11.07
2022-12-08T05:06:45.416Z,11.35
2022-12-08T05:08:47.220Z,14.73
2022-12-08T05:10:48.975Z,8.88
2022-12-08T05:12:50.731Z,9.20
2022-12-08T05:14:52.484Z,9.88
2022-12-08T05:16:54.306Z,9.80
2022-12-08T05:18:56.026Z,9.00
2022-12-08T05:20:57.909Z,12.40
2022-12-08T05:22:59.759Z,9.30
2022-12-08T05:25:01.563Z,10.18
2022-12-08T05:27:03.868Z,10.43
2022-12-08T05:29:05.669Z,8.85
2022-12-08T05:31:07.483Z,8.77
2022-12-08T05:33:09.345Z,11.63
2022-12-08T05:35:11.300Z,8.63
2022-12-08T05:37:13.197Z,13.20
2022-12-08T05:39:15.605Z,7.93
2022-12-08T05:41:20.966Z,8.90
2022-12-08T05:43:29.943Z,10.07
2022-12-08T05:45:31.984Z,14.68
2022-12-08T05:47:36.240Z,9.48
2022-12-08T05:49:38.360Z,10.05
2022-12-08T05:51:44.884Z,10.40
2022-12-08T05:53:48.700Z,9.82
2022-12-08T05:55:50.472Z,9.32
2022-12-08T05:57:52.289Z,17.30
2022-12-08T05:59:54.124Z,9.13
2022-12-08T06:01:56.201Z,9.95
2022-12-08T06:03:59.437Z,10.85
2022-12-08T06:06:01.146Z,10.07
2022-12-08T06:08:03.150Z,11.10
2022-12-08T06:10:06.217Z,10.82
2022-12-08T06:12:08.307Z,11.23
2022-12-08T06:14:12.241Z,9.38
2022-12-08T06:16:14.320Z,7.78
2022-12-08T06:18:16.100Z,8.75
2022-12-08T06:20:18.265Z,9.13
2022-12-08T06:22:20.017Z,8.23
2022-12-08T06:24:21.793Z,11.68
2022-12-08T06:26:23.729Z,9.50
2022-12-08T06:28:25.540Z,13.25
2022-12-08T06:30:29.002Z,13.55
2022-12-08T06:32:31.117Z,9.70
2022-12-08T06:34:33.031Z,9.63
2022-12-08T06:36:35.310Z,9.60
2022-12-08T06:38:40.530Z,9.52
2022-12-08T06:40:45.155Z,9.07
2022-12-08T06:42:47.435Z,10.63
2022-12-08T06:44:49.188Z,13.20
2022-12-08T06:46:51.044Z,9.63
2022-12-08T06:48:52.920Z,11.70
2022-12-08T06:50:54.753Z,12.65
2022-12-08T06:53:04.784Z,9.65
2022-12-08T06:55:07.743Z,8.40
2022-12-08T06:57:09.639Z,9.80
2022-12-08T06:59:11.686Z,7.95
2022-12-08T07:01:14.295Z,10.20
2022-12-08T07:03:16.186Z,11.18
2022-12-08T07:05:18.092Z,9.13
2022-12-08T07:07:19.874Z,9.13
2022-12-08T07:09:21.673Z,12.10
2022-12-08T07:11:23.522Z,11.93
2022-12-08T07:13:25.296Z,10.50
2022-12-08T07:15:30.287Z,7.90
2022-12-08T07:17:32.178Z,12.45
2022-12-08T07:19:33.920Z,10.02
2022-12-08T07:21:35.823Z,9.38
2022-12-08T07:23:38.152Z,8.82
2022-12-08T07:25:40.041Z,9.30
2022-12-08T07:27:42.072Z,10.95
2022-12-08T07:29:43.822Z,9.68
2022-12-08T07:31:45.683Z,8.38
2022-12-08T07:33:48.063Z,8.75
2022-12-08T07:35:57.292Z,7.40
2022-12-08T07:37:59.101Z,7.43
2022-12-08T07:40:01.067Z,6.80
2022-12-08T07:42:03.581Z,10.73
2022-12-08T07:44:05.456Z,6.63
2022-12-08T07:46:07.366Z,5.90
2022-12-08T07:48:09.222Z,6.53
2022-12-08T07:50:11.159Z,7.88
2022-12-08T07:52:12.965Z,9.02
2022-12-08T07:54:14.753Z,6.22
2022-12-08T07:56:17.019Z,5.90
2022-12-08T07:58:18.791Z,7.72
2022-12-08T08:00:21.043Z,6.38
2022-12-08T08:02:25.210Z,6.40
2022-12-08T08:04:28.450Z,6.95
2022-12-08T08:06:31.634Z,6.18
2022-12-08T08:08:33.378Z,6.40
2022-12-08T08:10:35.098Z,6.78
2022-12-08T08:12:38.436Z,5.88
2022-12-08T08:14:40.815Z,6.05
2022-12-08T08:16:46.925Z,6.35
2022-12-08T08:18:50.073Z,5.68
2022-12-08T08:20:51.761Z,9.82
2022-12-08T08:22:53.683Z,5.85
2022-12-08T08:24:57.748Z,7.13
2022-12-08T08:26:59.548Z,6.25
2022-12-08T08:29:01.301Z,7.18
2022-12-08T08:31:03.578Z,6.25
2022-12-08T08:33:05.392Z,4.50
2022-12-08T08:35:07.679Z,5.63
2022-12-08T08:37:12.748Z,6.28
2022-12-08T08:39:14.579Z,5.75
2022-12-08T08:41:16.498Z,5.50
2022-12-08T08:43:36.242Z,6.05
2022-12-08T08:45:40.074Z,5.50
2022-12-08T08:47:41.862Z,7.63
2022-12-08T08:49:43.890Z,6.22
2022-12-08T08:51:45.876Z,4.72
2022-12-08T08:53:47.634Z,5.75
2022-12-08T08:55:49.967Z,5.88
2022-12-08T08:57:51.720Z,5.75
2022-12-08T08:59:54.129Z,7.20
2022-12-08T09:01:56.032Z,5.75
2022-12-08T09:03:58.834Z,5.25
2022-12-08T09:06:00.789Z,4.55
2022-12-08T09:08:02.690Z,6.20
2022-12-08T09:10:05.015Z,7.20
2022-12-08T09:12:07.262Z,6.68
2022-12-08T09:14:12.542Z,6.90
2022-12-08T09:16:14.479Z,6.68
2022-12-08T09:18:16.301Z,6.25
2022-12-08T09:20:18.164Z,7.13
2022-12-08T09:22:19.981Z,6.78
2022-12-08T09:24:21.745Z,6.88
2022-12-08T09:26:24.112Z,8.00
2022-12-08T09:28:25.957Z,17.17
2022-12-08T09:30:29.066Z,15.75
2022-12-08T09:32:30.900Z,6.43
2022-12-08T09:34:32.794Z,6.53
2022-12-08T09:36:34.541Z,5.70
2022-12-08T09:38:36.479Z,6.15
2022-12-08T09:40:45.126Z,6.90
2022-12-08T09:43:11.211Z,8.13
2022-12-08T09:45:14.817Z,6.78
2022-12-08T09:47:36.503Z,7.22
2022-12-08T09:49:42.287Z,7.97
2022-12-08T09:51:46.085Z,7.82
2022-12-08T09:53:55.312Z,7.35
2022-12-08T09:56:03.525Z,7.70
2022-12-08T09:58:09.982Z,8.32
2022-12-08T10:00:13.685Z,6.15
2022-12-08T10:02:25.486Z,7.93
2022-12-08T10:04:32.587Z,7.18
2022-12-08T10:07:05.027Z,6.72
2022-12-08T10:09:21.123Z,6.43
2022-12-08T10:11:32.908Z,5.97
2022-12-08T10:13:53.469Z,7.25
2022-12-08T10:16:37.138Z,8.40
2022-12-08T10:18:38.955Z,7.45
2022-12-08T10:20:42.686Z,8.70
2022-12-08T10:22:46.266Z,7.78
2022-12-08T10:24:53.884Z,6.28
2022-12-08T10:26:55.766Z,7.63
2022-12-08T10:29:01.412Z,7.68
2022-12-08T10:31:03.383Z,6.63
2022-12-08T10:33:05.490Z,6.97
2022-12-08T10:35:10.102Z,6.07
2022-12-08T10:37:15.047Z,7.88
2022-12-08T10:39:47.056Z,7.20
2022-12-08T10:41:51.799Z,5.95
2022-12-08T10:44:00.228Z,7.22
2022-12-08T10:46:16.003Z,6.18
2022-12-08T10:48:28.675Z,7.03
2022-12-08T10:50:42.525Z,6.03
2022-12-08T10:53:07.837Z,7.40
2022-12-08T10:55:17.657Z,8.00
2022-12-08T10:57:25.607Z,6.80
2022-12-08T10:59:34.266Z,7.30
2022-12-08T11:01:40.156Z,6.93
2022-12-08T11:03:49.745Z,7.03
2022-12-08T11:05:56.936Z,6.75
2022-12-08T11:07:59.575Z,7.45
2022-12-08T11:10:01.818Z,6.68
2022-12-08T11:12:30.871Z,6.50
2022-12-08T11:14:38.027Z,7.63
2022-12-08T11:16:42.189Z,6.45
2022-12-08T11:18:50.178Z,6.05
2022-12-08T11:21:10.970Z,6.88
2022-12-08T11:23:30.826Z,6.18
2022-12-08T11:25:33.011Z,6.40
2022-12-08T11:27:37.972Z,6.32
2022-12-08T11:29:43.114Z,6.00
2022-12-08T11:32:00.460Z,7.47
2022-12-08T11:34:21.426Z,6.05
2022-12-08T11:36:39.840Z,4.72
2022-12-08T11:38:44.955Z,6.15
2022-12-08T11:40:51.285Z,5.57
2022-12-08T11:43:23.811Z,5.65
2022-12-08T11:45:29.656Z,5.18
2022-12-08T11:47:33.466Z,5.20
2022-12-08T11:49:48.532Z,8.18
2022-12-08T11:52:42.585Z,4.28
2022-12-08T11:54:53.997Z,5.55
2022-12-08T11:57:03.397Z,5.80
2022-12-08T11:59:27.052Z,5.70
2022-12-08T12:01:29.571Z,6.35
2022-12-08T12:03:36.604Z,4.78
2022-12-08T12:06:12.553Z,4.47
2022-12-08T12:08:15.764Z,4.85
2022-12-08T12:10:37.036Z,8.20
2022-12-08T12:13:17.057Z,6.22
2022-12-08T12:15:37.774Z,5.28
2022-12-08T12:17:49.885Z,7.05
2022-12-08T12:19:52.823Z,6.80
2022-12-08T12:22:14.085Z,6.65
2022-12-08T12:24:36.526Z,5.55
2022-12-08T12:26:39.801Z,7.45
2022-12-08T12:29:27.252Z,5.28
2022-12-08T12:31:49.942Z,12.65
2022-12-08T12:34:04.399Z,8.73
2022-12-08T12:36:08.398Z,6.30
2022-12-08T12:38:52.178Z,5.78
2022-12-08T12:41:01.075Z,5.75
2022-12-08T12:43:03.166Z,13.63
2022-12-08T12:45:17.569Z,6.90
2022-12-08T12:47:55.637Z,6.13
2022-12-08T12:50:08.876Z,5.00
2022-12-08T12:52:10.954Z,4.55
2022-12-08T12:54:29.621Z,5.32
2022-12-08T12:56:53.759Z,6.22
2022-12-08T12:59:37.190Z,5.60
2022-12-08T13:01:51.967Z,5.63
2022-12-08T13:04:31.336Z,4.15
2022-12-08T13:06:37.675Z,4.82
2022-12-08T13:08:47.100Z,4.55
2022-12-08T13:11:02.783Z,5.68
2022-12-08T13:13:11.141Z,5.32
2022-12-08T13:15:22.798Z,5.25
2022-12-08T13:17:38.760Z,4.15
2022-12-08T13:19:41.259Z,6.20
2022-12-08T13:21:43.073Z,4.10
2022-12-08T13:23:47.030Z,4.38
2022-12-08T13:25:55.075Z,4.82
2022-12-08T13:28:26.791Z,3.92
2022-12-08T13:30:51.341Z,3.53
2022-12-08T13:35:25.352Z,4.72
2022-12-08T13:37:53.977Z,3.65
2022-12-08T13:40:04.846Z,5.35
2022-12-08T13:42:35.116Z,3.28
2022-12-08T13:47:41.446Z,3.30
2022-12-08T13:57:37.547Z,2.97
2022-12-08T13:59:44.831Z,5.95
2022-12-08T14:01:48.993Z,3.13
2022-12-08T14:04:30.891Z,3.00
2022-12-08T14:06:28.924Z,2.60
2022-12-08T14:09:05.106Z,3.30
2022-12-08T14:11:09.019Z,3.20
2022-12-08T14:13:12.803Z,3.55
2022-12-08T14:15:15.611Z,6.93
2022-12-08T14:17:19.533Z,4.97
2022-12-08T14:19:32.130Z,4.85
2022-12-08T14:21:36.174Z,4.32
2022-12-08T14:23:38.650Z,4.32
2022-12-08T14:25:47.377Z,4.95
2022-12-08T14:27:49.962Z,3.25
2022-12-08T14:29:56.701Z,3.40
2022-12-08T14:31:58.887Z,2.90
2022-12-08T14:34:01.236Z,2.72
2022-12-08T14:36:12.827Z,3.45
2022-12-08T14:38:19.444Z,4.43
2022-12-08T14:40:24.360Z,3.83
2022-12-08T14:42:27.508Z,3.97
2022-12-08T14:44:32.965Z,3.55
2022-12-08T14:46:34.815Z,2.95
2022-12-08T14:48:36.528Z,2.97
2022-12-08T14:50:45.301Z,9.95
2022-12-08T14:52:47.117Z,2.92
2022-12-08T14:54:50.504Z,3.78
2022-12-08T14:56:54.691Z,2.70
2022-12-08T14:59:14.713Z,3.40
2022-12-08T15:01:22.410Z,2.70
2022-12-08T15:03:27.476Z,2.92
2022-12-08T15:05:30.573Z,4.13
2022-12-08T15:07:51.760Z,3.63
2022-12-08T15:10:16.805Z,3.05
2022-12-08T15:12:27.184Z,3.47
2022-12-08T15:14:35.965Z,2.50
2022-12-08T15:16:44.019Z,3.88
2022-12-08T15:18:45.851Z,3.83
2022-12-08T15:20:50.875Z,3.20
2022-12-08T15:22:56.115Z,2.65
2022-12-08T15:24:58.139Z,3.67
2022-12-08T15:27:00.082Z,3.38
2022-12-08T15:29:11.827Z,3.58
2022-12-08T15:31:14.313Z,3.10
2022-12-08T15:33:16.163Z,4.63
2022-12-08T15:35:18.011Z,2.78
2022-12-08T15:37:26.652Z,4.22
2022-12-08T15:39:34.964Z,4.78
2022-12-08T15:41:36.837Z,4.57
2022-12-08T15:43:38.562Z,5.20
2022-12-08T15:45:45.802Z,4.03
2022-12-08T15:47:56.794Z,3.60
2022-12-08T15:49:58.470Z,3.85
2022-12-08T15:52:10.608Z,6.32
2022-12-08T15:54:13.974Z,4.95
2022-12-08T15:56:31.225Z,6.15
2022-12-08T16:00:56.594Z,7.28
2022-12-08T16:03:27.738Z,4.15
2022-12-08T16:07:43.382Z,5.18
2022-12-08T16:09:45.461Z,10.45
2022-12-08T16:12:26.236Z,13.93
2022-12-08T16:16:52.438Z,6.30
2022-12-08T16:18:54.169Z,6.38
2022-12-08T16:21:09.569Z,5.60
2022-12-08T16:23:34.613Z,5.65
2022-12-08T16:26:08.911Z,4.88
2022-12-08T16:28:23.212Z,5.55
2022-12-08T16:30:24.640Z,4.60
2022-12-08T16:32:27.259Z,7.03
2022-12-08T16:34:29.798Z,7.88
2022-12-08T16:36:31.553Z,9.93
2022-12-08T16:38:33.404Z,9.18
2022-12-08T16:40:55.173Z,6.97
2022-12-08T16:42:57.512Z,6.70
2022-12-08T16:44:59.680Z,6.28
2022-12-08T16:47:08.793Z,9.65
2022-12-08T16:49:10.652Z,12.15
2022-12-08T16:51:18.066Z,12.43
2022-12-08T16:53:22.835Z,10.48
2022-12-08T16:55:24.823Z,12.77
2022-12-08T16:57:26.995Z,11.13
2022-12-08T16:59:28.788Z,9.48
2022-12-08T17:01:30.703Z,8.43
2022-12-08T17:03:34.499Z,6.88
2022-12-08T17:05:36.738Z,7.88
2022-12-08T17:07:38.593Z,5.60
2022-12-08T17:09:40.396Z,6.13
2022-12-08T17:11:43.707Z,6.57
2022-12-08T17:13:45.734Z,6.20
2022-12-08T17:15:47.439Z,5.75
2022-12-08T17:17:49.318Z,8.10
2022-12-08T17:19:51.138Z,7.38
2022-12-08T17:21:52.917Z,8.10
2022-12-08T17:23:55.010Z,6.55
2022-12-08T17:26:02.723Z,5.75
2022-12-08T17:28:04.498Z,5.68
2022-12-08T17:30:09.902Z,181.68
2022-12-08T17:32:11.753Z,158.25
2022-12-08T17:34:13.565Z,47.60
2022-12-08T17:36:16.966Z,34.13
2022-12-08T17:38:19.773Z,18.38
2022-12-08T17:40:22.883Z,14.10
2022-12-08T17:42:27.411Z,9.80
2022-12-08T17:44:29.140Z,8.85
2022-12-08T17:46:30.947Z,7.07
2022-12-08T17:48:34.925Z,10.35
2022-12-08T17:50:44.112Z,10.90
2022-12-08T17:52:45.897Z,10.98
2022-12-08T17:54:47.646Z,13.05
2022-12-08T17:56:49.434Z,13.73
2022-12-08T17:58:54.531Z,11.85
2022-12-08T18:00:56.724Z,8.77
2022-12-08T18:02:58.757Z,8.30
2022-12-08T18:05:00.576Z,9.52
2022-12-08T18:07:03.544Z,6.03
2022-12-08T18:09:07.272Z,5.20
2022-12-08T18:11:18.120Z,6.90
2022-12-08T18:13:19.803Z,4.40
2022-12-08T18:15:21.703Z,6.20
2022-12-08T18:17:23.441Z,6.95
2022-12-08T18:19:26.392Z,5.75
2022-12-08T18:21:28.653Z,7.40
2022-12-08T18:23:30.440Z,6.30
2022-12-08T18:25:32.207Z,6.63
2022-12-08T18:27:38.657Z,7.00
2022-12-08T18:29:44.722Z,6.93
2022-12-08T18:31:46.508Z,7.28
2022-12-08T18:33:48.892Z,6.80
2022-12-08T18:35:50.879Z,13.48
2022-12-08T18:37:55.761Z,5.57
2022-12-08T18:39:57.600Z,5.68
2022-12-08T18:42:02.644Z,7.68
2022-12-08T18:44:04.723Z,14.73
2022-12-08T18:46:09.569Z,6.18
2022-12-08T18:48:11.511Z,7.57
2022-12-08T18:50:13.396Z,8.40
2022-12-08T18:52:17.884Z,6.65
2022-12-08T18:54:42.856Z,8.05
2022-12-08T18:56:45.717Z,8.90
2022-12-08T18:58:47.449Z,11.60
2022-12-08T19:00:49.195Z,9.88
2022-12-08T19:02:51.190Z,7.03
2022-12-08T19:04:55.627Z,8.73
2022-12-08T19:06:57.716Z,6.88
2022-12-08T19:08:59.419Z,7.35
2022-12-08T19:11:01.185Z,7.57
2022-12-08T19:13:02.968Z,7.55
2022-12-08T19:15:05.625Z,7.97
2022-12-08T19:17:08.190Z,9.75
2022-12-08T19:19:09.932Z,7.30
2022-12-08T19:21:12.557Z,7.38
2022-12-08T19:23:14.734Z,10.15
2022-12-08T19:25:16.438Z,7.47
2022-12-08T19:27:18.876Z,9.02
2022-12-08T19:29:20.728Z,8.85
2022-12-08T19:31:22.702Z,8.52
2022-12-08T19:33:24.727Z,8.10
2022-12-08T19:35:26.634Z,8.73
2022-12-08T19:37:28.447Z,6.35
2022-12-08T19:39:48.658Z,7.85
2022-12-08T19:42:09.441Z,8.15
2022-12-08T19:44:52.839Z,8.23
2022-12-08T19:46:54.687Z,7.50
2022-12-08T19:48:56.633Z,9.43
2022-12-08T19:50:58.967Z,6.22
2022-12-08T19:53:01.317Z,7.32
2022-12-08T19:55:03.217Z,10.25
2022-12-08T19:57:05.188Z,10.25
2022-12-08T19:59:07.949Z,6.95
2022-12-08T20:01:09.918Z,8.75
2022-12-08T20:03:22.031Z,8.38
2022-12-08T20:05:24.523Z,8.32
2022-12-08T20:07:26.424Z,8.38
2022-12-08T20:09:28.234Z,9.40
2022-12-08T20:11:30.024Z,7.03
2022-12-08T20:13:41.010Z,9.23
2022-12-08T20:15:43.282Z,7.68
2022-12-08T20:17:45.244Z,9.40
2022-12-08T20:19:47.135Z,12.45
2022-12-08T20:21:49.043Z,14.45
2022-12-08T20:23:50.921Z,8.93
2022-12-08T20:25:52.993Z,12.32
2022-12-08T20:27:54.777Z,10.07
2022-12-08T20:29:56.587Z,9.57
2022-12-08T20:31:58.505Z,8.90
2022-12-08T20:34:00.668Z,8.43
2022-12-08T20:36:04.865Z,8.48
2022-12-08T20:38:06.733Z,8.15
2022-12-08T20:40:09.152Z,10.88
2022-12-08T20:42:14.060Z,9.07
2022-12-08T20:44:15.854Z,9.18
2022-12-08T20:46:18.227Z,7.80
2022-12-08T20:48:20.157Z,9.70
2022-12-08T20:50:21.972Z,10.63
2022-12-08T20:52:24.135Z,12.60
2022-12-08T20:54:26.076Z,10.23
2022-12-08T20:56:28.035Z,11.48
2022-12-08T20:58:30.125Z,14.20
2022-12-08T21:00:32.007Z,14.15
2022-12-08T21:02:34.258Z,11.85
2022-12-08T21:04:36.154Z,11.45
2022-12-08T21:06:38.280Z,11.35
2022-12-08T21:08:40.823Z,10.82
2022-12-08T21:10:44.161Z,11.70
2022-12-08T21:12:46.315Z,13.18
2022-12-08T21:14:48.083Z,12.25
2022-12-08T21:16:50.986Z,10.10
2022-12-08T21:18:52.992Z,9.52
2022-12-08T21:21:06.159Z,11.73
2022-12-08T21:23:08.043Z,14.30
2022-12-08T21:25:09.841Z,11.20
2022-12-08T21:27:11.687Z,13.65
2022-12-08T21:29:13.466Z,14.68
2022-12-08T21:31:17.497Z,11.10
2022-12-08T21:33:19.719Z,11.10
2022-12-08T21:35:21.576Z,9.82
2022-12-08T21:37:23.379Z,10.98
2022-12-08T21:39:25.298Z,10.70
2022-12-08T21:41:46.175Z,10.90
2022-12-08T21:43:50.992Z,11.52
2022-12-08T21:45:52.776Z,12.48
2022-12-08T21:47:54.896Z,20.80
2022-12-08T21:49:57.059Z,12.77
2022-12-08T21:51:59.526Z,13.82
2022-12-08T21:54:01.350Z,13.75
2022-12-08T21:56:08.770Z,14.85
2022-12-08T21:58:10.957Z,13.20
2022-12-08T22:00:16.301Z,13.85
2022-12-08T22:02:22.402Z,15.10
2022-12-08T22:04:25.701Z,10.63
2022-12-08T22:06:27.580Z,15.27
2022-12-08T22:08:29.650Z,14.55
2022-12-08T22:10:31.586Z,19.63
2022-12-08T22:12:35.015Z,18.52
2022-12-08T22:14:36.886Z,35.45
2022-12-08T22:16:39.003Z,47.92
2022-12-08T22:18:41.474Z,38.75
2022-12-08T22:20:44.401Z,104.68
2022-12-08T22:22:47.009Z,115.82
2022-12-08T22:24:49.020Z,165.40
2022-12-08T22:26:51.018Z,176.40
2022-12-08T22:28:53.079Z,163.05
2022-12-08T22:30:55.043Z,129.48
2022-12-08T22:32:57.119Z,118.85
2022-12-08T22:34:59.103Z,66.53
2022-12-08T22:37:01.137Z,49.50
2022-12-08T22:39:04.288Z,31.70
2022-12-08T22:41:06.603Z,21.45
2022-12-08T22:43:08.515Z,24.25
2022-12-08T22:45:10.965Z,19.38
2022-12-08T22:47:13.011Z,19.45
2022-12-08T22:49:14.948Z,10.82
2022-12-08T22:51:18.134Z,9.35
2022-12-08T22:53:20.475Z,9.43
2022-12-08T22:55:22.426Z,7.75
2022-12-08T22:57:24.262Z,9.07
2022-12-08T22:59:26.046Z,10.10
2022-12-08T23:01:30.063Z,8.88
2022-12-08T23:03:32.511Z,8.60
2022-12-08T23:05:36.047Z,8.48
2022-12-08T23:07:38.968Z,10.38
2022-12-08T23:09:41.236Z,9.88
2022-12-08T23:11:44.232Z,9.20
2022-12-08T23:13:46.240Z,9.07
2022-12-08T23:15:48.214Z,9.13
2022-12-08T23:17:50.406Z,19.23
2022-12-08T23:19:52.342Z,8.00
2022-12-08T23:21:54.154Z,13.75
2022-12-08T23:23:55.888Z,8.90
2022-12-08T23:25:57.763Z,11.60
2022-12-08T23:27:59.714Z,10.38
2022-12-08T23:30:01.418Z,9.38
2022-12-08T23:32:03.413Z,13.82
2022-12-08T23:34:05.191Z,16.00
2022-12-08T23:36:07.331Z,10.10
2022-12-08T23:38:09.443Z,9.60
2022-12-08T23:40:11.921Z,12.20
2022-12-08T23:42:14.007Z,11.73
2022-12-08T23:44:15.865Z,9.07
2022-12-08T23:46:19.907Z,13.85
2022-12-08T23:48:21.910Z,11.52
2022-12-08T23:50:23.589Z,9.63
2022-12-08T23:52:25.591Z,9.82
2022-12-08T23:54:27.359Z,11.02
2022-12-08T23:56:30.638Z,10.20
2022-12-08T23:58:33.285Z,11.38
